createdAt,value
2016-05-21T00:00:30.217Z,89.73
2016-05-21T00:01:30.250Z,89.82
2016-05-21T00:02:30.284Z,89.63
2016-05-21T00:03:30.319Z,90.01
2016-05-21T00:04:30.352Z,89.92
2016-05-21T00:05:30.386Z,89.44
2016-05-21T00:06:30.419Z,89.87
2016-05-21T00:07:30.470Z,90.01
2016-05-21T00:08:30.488Z,89.63
2016-05-21T00:09:30.522Z,90.59
2016-05-21T00:10:30.555Z,90.49
2016-05-21T00:11:30.727Z,90.3
2016-05-21T00:12:30.667Z,90.3
2016-05-21T00:13:30.701Z,90.39
2016-05-21T00:14:30.750Z,89.63
2016-05-21T00:15:30.801Z,90.78
2016-05-21T00:16:30.858Z,90.49
2016-05-21T00:17:30.898Z,90.49
2016-05-21T00:18:30.938Z,90.68
2016-05-21T00:19:30.977Z,90.88
2016-05-21T00:20:31.016Z,90.59
2016-05-21T00:21:31.054Z,90.3
2016-05-21T00:22:31.107Z,90.3
2016-05-21T00:23:31.126Z,90.59
2016-05-21T00:24:31.163Z,90.3
2016-05-21T00:25:31.214Z,90.78
2016-05-21T00:26:31.718Z,90.68
2016-05-21T00:27:31.113Z,90.68
2016-05-21T00:28:31.303Z,90.39
2016-05-21T00:29:31.338Z,90.39
2016-05-21T00:30:31.372Z,89.63
2016-05-21T00:31:31.407Z,89.15
2016-05-21T00:32:31.441Z,89.39
2016-05-21T00:33:31.334Z,89.39
2016-05-21T00:34:31.353Z,89.2
2016-05-21T00:35:31.559Z,89.77
2016-05-21T00:36:31.436Z,89.39
2016-05-21T00:37:31.626Z,89.39
2016-05-21T00:38:31.661Z,89.53
2016-05-21T00:39:31.694Z,89.73
2016-05-21T00:40:31.728Z,89.92
2016-05-21T00:41:31.762Z,89.53
2016-05-21T00:42:31.796Z,89.44
2016-05-21T00:43:31.830Z,89.53
2016-05-21T00:44:31.863Z,89.53
2016-05-21T00:45:31.898Z,89.53
2016-05-21T00:46:31.933Z,89.25
2016-05-21T00:47:31.966Z,89.63
2016-05-21T00:48:32.000Z,89.44
2016-05-21T00:49:31.877Z,89.53
2016-05-21T00:50:31.911Z,89.92
2016-05-21T00:51:32.102Z,89.92
2016-05-21T00:52:32.151Z,90.49
2016-05-21T00:53:32.029Z,90.3
2016-05-21T00:54:32.218Z,90.3
2016-05-21T00:55:32.252Z,90.59
2016-05-21T00:56:32.287Z,90.59
2016-05-21T00:57:32.320Z,90.59
2016-05-21T00:58:32.354Z,90.88
2016-05-21T00:59:32.232Z,90.59
2016-05-21T01:00:32.423Z,90.59
2016-05-21T01:01:32.457Z,91.45
2016-05-21T01:02:32.490Z,91.16
2016-05-21T01:03:32.524Z,91.16
2016-05-21T01:04:32.559Z,90.68
2016-05-21T01:05:32.436Z,90.88
2016-05-21T01:06:32.626Z,90.78
2016-05-21T01:07:32.676Z,91.45
2016-05-21T01:08:32.709Z,91.11
2016-05-21T01:09:32.744Z,91.11
2016-05-21T01:10:32.777Z,91.21
2016-05-21T01:11:32.811Z,90.64
2016-05-21T01:12:32.845Z,91.02
2016-05-21T01:13:32.879Z,91.59
2016-05-21T01:14:32.914Z,91.3
2016-05-21T01:15:32.947Z,92.07
2016-05-21T01:16:32.981Z,92.26
2016-05-21T01:17:33.016Z,92.16
2016-05-21T01:18:33.049Z,92.26
2016-05-21T01:19:33.083Z,92.64
2016-05-21T01:20:33.117Z,92.83
2016-05-21T01:21:33.151Z,93.21
2016-05-21T01:22:33.185Z,93.12
2016-05-21T01:23:33.219Z,92.83
2016-05-21T01:24:33.252Z,93.6
2016-05-21T01:25:33.287Z,93.07
2016-05-21T01:26:33.617Z,93.02
2016-05-21T01:27:33.354Z,92.93
2016-05-21T01:28:33.388Z,93.12
2016-05-21T01:29:33.423Z,93.88
2016-05-21T01:30:33.457Z,93.84
2016-05-21T01:31:33.506Z,94.03
2016-05-21T01:32:33.524Z,93.84
2016-05-21T01:33:33.559Z,94.03
2016-05-21T01:34:33.592Z,94.03
2016-05-21T01:35:33.626Z,94.22
2016-05-21T01:36:33.504Z,93.46
2016-05-21T01:37:33.694Z,93.46
2016-05-21T01:38:33.728Z,93.65
2016-05-21T01:39:33.606Z,93.74
2016-05-21T01:40:33.795Z,93.79
2016-05-21T01:41:34.064Z,93.98
2016-05-21T01:42:33.879Z,93.7
2016-05-21T01:43:33.914Z,93.93
2016-05-21T01:44:33.932Z,93.88
2016-05-21T01:45:33.809Z,93.46
2016-05-21T01:46:34.015Z,93.46
2016-05-21T01:47:34.033Z,93.55
2016-05-21T01:48:34.083Z,93.84
2016-05-21T01:49:34.117Z,93.6
2016-05-21T01:50:34.150Z,93.74
2016-05-21T01:51:34.185Z,93.65
2016-05-21T01:52:34.218Z,93.84
2016-05-21T01:53:34.096Z,93.46
2016-05-21T01:54:34.286Z,93.93
2016-05-21T01:55:34.321Z,93.84
2016-05-21T01:56:34.636Z,94.22
2016-05-21T01:57:34.388Z,94.03
2016-05-21T01:58:34.422Z,94.22
2016-05-21T01:59:34.457Z,94.22
2016-05-21T02:00:34.334Z,94.41
2016-05-21T02:01:34.524Z,94.79
2016-05-21T02:02:34.557Z,94.7
2016-05-21T02:03:34.592Z,94.31
2016-05-21T02:04:34.626Z,94.89
2016-05-21T02:05:34.659Z,94.79
2016-05-21T02:06:34.537Z,94.7
2016-05-21T02:07:34.743Z,94.6
2016-05-21T02:08:34.761Z,94.12
2016-05-21T02:09:34.795Z,94.22
2016-05-21T02:10:34.829Z,93.93
2016-05-21T02:11:34.864Z,93.93
2016-05-21T02:12:34.898Z,93.55
2016-05-21T02:13:34.931Z,93.65
2016-05-21T02:14:34.965Z,93.36
2016-05-21T02:15:35.000Z,93.84
2016-05-21T02:16:35.033Z,93.65
2016-05-21T02:17:35.067Z,93.46
2016-05-21T02:18:35.100Z,93.65
2016-05-21T02:19:35.135Z,93.93
2016-05-21T02:20:35.169Z,93.55
2016-05-21T02:21:35.203Z,93.65
2016-05-21T02:22:35.236Z,93.46
2016-05-21T02:23:35.271Z,93.55
2016-05-21T02:24:35.149Z,93.93
2016-05-21T02:25:35.339Z,94.12
2016-05-21T02:26:35.372Z,93.74
2016-05-21T02:27:35.406Z,93.74
2016-05-21T02:28:35.441Z,94.03
2016-05-21T02:29:35.318Z,93.93
2016-05-21T02:30:35.508Z,93.26
2016-05-21T02:31:35.543Z,94.03
2016-05-21T02:32:35.576Z,94.03
2016-05-21T02:33:35.610Z,94.12
2016-05-21T02:34:35.643Z,94.22
2016-05-21T02:35:35.679Z,94.03
2016-05-21T02:36:35.711Z,93.84
2016-05-21T02:37:35.590Z,93.55
2016-05-21T02:38:35.780Z,93.26
2016-05-21T02:39:35.814Z,93.46
2016-05-21T02:40:35.864Z,93.74
2016-05-21T02:41:35.897Z,93.17
2016-05-21T02:42:35.759Z,92.97
2016-05-21T02:43:35.950Z,93.07
2016-05-21T02:44:35.983Z,93.07
2016-05-21T02:45:36.017Z,93.55
2016-05-21T02:46:36.066Z,93.07
2016-05-21T02:47:36.100Z,92.97
2016-05-21T02:48:36.119Z,92.97
2016-05-21T02:49:36.169Z,93.07
2016-05-21T02:50:36.187Z,93.07
2016-05-21T02:51:36.283Z,93.07
2016-05-21T02:52:36.333Z,94.03
2016-05-21T02:53:36.289Z,93.65
2016-05-21T02:54:36.182Z,93.26
2016-05-21T02:55:36.372Z,93.55
2016-05-21T02:56:36.672Z,93.65
2016-05-21T02:57:36.424Z,93.65
2016-05-21T02:58:36.458Z,94.03
2016-05-21T02:59:36.493Z,94.17
2016-05-21T03:00:36.527Z,94.46
2016-05-21T03:01:36.560Z,94.46
2016-05-21T03:02:36.593Z,94.17
2016-05-21T03:03:36.629Z,94.46
2016-05-21T03:04:36.662Z,94.17
2016-05-21T03:05:36.712Z,94.46
2016-05-21T03:06:36.729Z,94.74
2016-05-21T03:07:36.764Z,94.65
2016-05-21T03:08:36.798Z,94.36
2016-05-21T03:09:36.832Z,94.65
2016-05-21T03:10:36.865Z,95.03
2016-05-21T03:11:36.900Z,94.36
2016-05-21T03:12:36.934Z,94.56
2016-05-21T03:13:36.967Z,94.65
2016-05-21T03:14:37.001Z,94.36
2016-05-21T03:15:37.036Z,94.93
2016-05-21T03:16:37.069Z,94.93
2016-05-21T03:17:37.103Z,95.12
2016-05-21T03:18:37.137Z,95.12
2016-05-21T03:19:37.171Z,95.12
2016-05-21T03:20:37.050Z,95.32
2016-05-21T03:21:37.239Z,94.93
2016-05-21T03:22:37.273Z,94.27
2016-05-21T03:23:37.308Z,93.98
2016-05-21T03:24:37.341Z,94.93
2016-05-21T03:25:37.375Z,94.56
2016-05-21T03:26:37.424Z,94.36
2016-05-21T03:27:37.459Z,94.17
2016-05-21T03:28:37.477Z,93.88
2016-05-21T03:29:37.526Z,94.17
2016-05-21T03:30:37.544Z,94.36
2016-05-21T03:31:37.579Z,94.65
2016-05-21T03:32:37.471Z,94.74
2016-05-21T03:33:37.646Z,94.56
2016-05-21T03:34:37.680Z,95.61
2016-05-21T03:35:37.715Z,95.03
2016-05-21T03:36:37.748Z,94.74
2016-05-21T03:37:37.782Z,94.17
2016-05-21T03:38:37.816Z,95.03
2016-05-21T03:39:37.850Z,94.74
2016-05-21T03:40:37.884Z,94.74
2016-05-21T03:41:37.762Z,94.74
2016-05-21T03:42:37.951Z,95.7
2016-05-21T03:43:37.986Z,95.32
2016-05-21T03:44:38.036Z,95.32
2016-05-21T03:45:38.053Z,95.51
2016-05-21T03:46:38.087Z,94.93
2016-05-21T03:47:38.122Z,94.74
2016-05-21T03:48:38.156Z,94.74
2016-05-21T03:49:38.033Z,94.46
2016-05-21T03:50:38.223Z,94.65
2016-05-21T03:51:38.258Z,94.65
2016-05-21T03:52:38.291Z,94.56
2016-05-21T03:53:38.325Z,94.07
2016-05-21T03:54:38.359Z,94.36
2016-05-21T03:55:38.393Z,94.07
2016-05-21T03:56:38.427Z,94.17
2016-05-21T03:57:38.461Z,93.98
2016-05-21T03:58:38.495Z,93.98
2016-05-21T03:59:38.529Z,94.36
2016-05-21T04:00:38.563Z,93.98
2016-05-21T04:01:38.596Z,94.56
2016-05-21T04:02:38.630Z,94.93
2016-05-21T04:03:38.665Z,94.07
2016-05-21T04:04:38.699Z,94.07
2016-05-21T04:05:38.732Z,93.88
2016-05-21T04:06:38.766Z,93.41
2016-05-21T04:07:38.644Z,93.65
2016-05-21T04:08:38.678Z,93.46
2016-05-21T04:09:38.868Z,92.88
2016-05-21T04:10:38.902Z,92.79
2016-05-21T04:11:38.779Z,92.69
2016-05-21T04:12:38.970Z,92.21
2016-05-21T04:13:39.004Z,91.93
2016-05-21T04:14:39.023Z,91.83
2016-05-21T04:15:39.073Z,91.64
2016-05-21T04:16:39.106Z,91.55
2016-05-21T04:17:39.140Z,91.45
2016-05-21T04:18:39.173Z,90.88
2016-05-21T04:19:39.208Z,91.07
2016-05-21T04:20:39.242Z,90.69
2016-05-21T04:21:39.276Z,91.02
2016-05-21T04:22:39.309Z,90.16
2016-05-21T04:23:39.344Z,90.73
2016-05-21T04:24:39.377Z,90.25
2016-05-21T04:25:39.412Z,89.68
2016-05-21T04:26:39.601Z,88.44
2016-05-21T04:27:39.479Z,87.82
2016-05-21T04:28:39.529Z,86.67
2016-05-21T04:29:39.547Z,86
2016-05-21T04:30:39.581Z,85.85
2016-05-21T04:31:39.615Z,85.28
2016-05-21T04:32:39.649Z,85.28
2016-05-21T04:33:39.526Z,84.89
2016-05-21T04:34:39.716Z,84.89
2016-05-21T04:35:39.751Z,84.61
2016-05-21T04:36:39.784Z,83.84
2016-05-21T04:37:39.819Z,83.75
2016-05-21T04:38:39.868Z,83.27
2016-05-21T04:39:39.887Z,83.17
2016-05-21T04:40:39.921Z,82.03
2016-05-21T04:41:40.251Z,80.73
2016-05-21T04:42:39.832Z,79.81
2016-05-21T04:43:40.022Z,80.1
2016-05-21T04:44:40.072Z,80.1
2016-05-21T04:45:40.106Z,80.29
2016-05-21T04:46:40.140Z,80
2016-05-21T04:47:40.173Z,81.15
2016-05-21T04:48:40.208Z,81.11
2016-05-21T04:49:40.242Z,81.68
2016-05-21T04:50:40.276Z,82.17
2016-05-21T04:51:40.309Z,82.26
2016-05-21T04:52:40.344Z,82.26
2016-05-21T04:53:40.392Z,82.64
2016-05-21T04:54:40.427Z,83.56
2016-05-21T04:55:40.461Z,83.56
2016-05-21T04:56:40.511Z,83.46
2016-05-21T04:57:40.528Z,82.45
2016-05-21T04:58:40.562Z,83.12
2016-05-21T04:59:40.597Z,83.03
2016-05-21T05:00:40.630Z,82.45
2016-05-21T05:01:40.664Z,82.35
2016-05-21T05:02:40.698Z,82.64
2016-05-21T05:03:40.748Z,82.45
2016-05-21T05:04:40.782Z,83.31
2016-05-21T05:05:40.816Z,84.13
2016-05-21T05:06:40.849Z,83.46
2016-05-21T05:07:40.884Z,83.65
2016-05-21T05:08:40.917Z,82.98
2016-05-21T05:09:40.952Z,83.12
2016-05-21T05:10:40.985Z,83.46
2016-05-21T05:11:41.082Z,84.27
2016-05-21T05:12:41.069Z,84.03
2016-05-21T05:13:41.103Z,84.23
2016-05-21T05:14:41.137Z,84.42
2016-05-21T05:15:41.171Z,84.23
2016-05-21T05:16:41.205Z,84.52
2016-05-21T05:17:41.254Z,85.47
2016-05-21T05:18:41.273Z,85.85
2016-05-21T05:19:41.166Z,85.75
2016-05-21T05:20:41.340Z,85.28
2016-05-21T05:21:41.390Z,84.99
2016-05-21T05:22:41.424Z,85.18
2016-05-21T05:23:41.458Z,85.28
2016-05-21T05:24:41.492Z,84.99
2016-05-21T05:25:41.525Z,85.57
2016-05-21T05:26:41.950Z,84.99
2016-05-21T05:27:41.594Z,84.52
2016-05-21T05:28:41.643Z,84.42
2016-05-21T05:29:41.694Z,84.52
2016-05-21T05:30:41.711Z,83.56
2016-05-21T05:31:41.588Z,82.45
2016-05-21T05:32:41.779Z,81.59
2016-05-21T05:33:41.813Z,80.38
2016-05-21T05:34:41.878Z,79.14
2016-05-21T05:35:41.912Z,78.86
2016-05-21T05:36:41.931Z,79.28
2016-05-21T05:37:41.964Z,79.24
2016-05-21T05:38:41.998Z,79.14
2016-05-21T05:39:42.063Z,79.62
2016-05-21T05:40:42.082Z,80.1
2016-05-21T05:41:42.428Z,80.1
2016-05-21T05:42:42.149Z,80.48
2016-05-21T05:43:42.184Z,80.96
2016-05-21T05:44:42.218Z,80.96
2016-05-21T05:45:42.251Z,80.77
2016-05-21T05:46:42.285Z,81.73
2016-05-21T05:47:42.319Z,82.93
2016-05-21T05:48:42.369Z,83.03
2016-05-21T05:49:42.403Z,82.35
2016-05-21T05:50:42.453Z,82.35
2016-05-21T05:51:42.470Z,82.07
2016-05-21T05:52:42.505Z,82.11
2016-05-21T05:53:42.554Z,81.63
2016-05-21T05:54:42.588Z,82.11
2016-05-21T05:55:42.638Z,82.45
2016-05-21T05:56:42.516Z,82.54
2016-05-21T05:57:42.690Z,83.22
2016-05-21T05:58:42.724Z,83.22
2016-05-21T05:59:42.774Z,82.45
2016-05-21T06:00:42.807Z,82.54
2016-05-21T06:01:42.841Z,82.35
2016-05-21T06:02:42.875Z,81.82
2016-05-21T06:03:42.910Z,81.73
2016-05-21T06:04:42.944Z,81.73
2016-05-21T06:05:42.977Z,81.15
2016-05-21T06:06:43.027Z,80.96
2016-05-21T06:07:42.904Z,81.15
2016-05-21T06:08:42.938Z,80.1
2016-05-21T06:09:43.144Z,80.58
2016-05-21T06:10:43.179Z,80.87
2016-05-21T06:11:43.196Z,80.48
2016-05-21T06:12:43.074Z,80.33
2016-05-21T06:13:43.280Z,80.19
2016-05-21T06:14:43.314Z,80
2016-05-21T06:15:43.348Z,79.28
2016-05-21T06:16:43.398Z,78.99
2016-05-21T06:17:43.431Z,78.99
2016-05-21T06:18:43.465Z,79.37
2016-05-21T06:19:43.499Z,79.47
2016-05-21T06:20:43.376Z,79.66
2016-05-21T06:21:43.567Z,79.28
2016-05-21T06:22:43.601Z,79.66
2016-05-21T06:23:43.651Z,79.66
2016-05-21T06:24:43.684Z,79.28
2016-05-21T06:25:43.719Z,79.18
2016-05-21T06:26:43.768Z,78.99
2016-05-21T06:27:43.802Z,78.42
2016-05-21T06:28:43.836Z,78.27
2016-05-21T06:29:43.870Z,77.97
2016-05-21T06:30:43.903Z,77.59
2016-05-21T06:31:43.938Z,77.21
2016-05-21T06:32:43.987Z,77.11
2016-05-21T06:33:44.021Z,77.4
2016-05-21T06:34:44.055Z,77.06
2016-05-21T06:35:44.089Z,77.21
2016-05-21T06:36:44.139Z,77.02
2016-05-21T06:37:44.001Z,76.48
2016-05-21T06:38:44.207Z,77.53
2016-05-21T06:39:44.257Z,77.78
2016-05-21T06:40:44.275Z,77.11
2016-05-21T06:41:44.464Z,77.4
2016-05-21T06:42:44.374Z,77.4
2016-05-21T06:43:44.392Z,77.21
2016-05-21T06:44:44.426Z,77.59
2016-05-21T06:45:44.475Z,77.5
2016-05-21T06:46:44.509Z,77.69
2016-05-21T06:47:44.559Z,77.31
2016-05-21T06:48:44.577Z,77.4
2016-05-21T06:49:44.612Z,77.31
2016-05-21T06:50:44.661Z,77.4
2016-05-21T06:51:44.539Z,77.59
2016-05-21T06:52:44.728Z,77.31
2016-05-21T06:53:44.762Z,76.64
2016-05-21T06:54:44.812Z,77.31
2016-05-21T06:55:44.846Z,77.21
2016-05-21T06:56:45.036Z,77.5
2016-05-21T06:57:44.758Z,77.06
2016-05-21T06:58:44.964Z,76.39
2016-05-21T06:59:44.841Z,76
2016-05-21T07:00:45.031Z,74.89
2016-05-21T07:01:45.081Z,74.6
2016-05-21T07:02:45.099Z,74.69
2016-05-21T07:03:44.992Z,74.69
2016-05-21T07:04:45.183Z,74.6
2016-05-21T07:05:45.233Z,74.69
2016-05-21T07:06:45.266Z,74.6
2016-05-21T07:07:45.300Z,74.41
2016-05-21T07:08:45.350Z,74.02
2016-05-21T07:09:45.383Z,74.02
2016-05-21T07:10:45.432Z,73.55
2016-05-21T07:11:45.702Z,72.72
2016-05-21T07:12:45.485Z,72.43
2016-05-21T07:13:45.519Z,71.8
2016-05-21T07:14:45.569Z,71.31
2016-05-21T07:15:45.618Z,71.41
2016-05-21T07:16:45.637Z,70.58
2016-05-21T07:17:45.687Z,70.68
2016-05-21T07:18:45.721Z,70.29
2016-05-21T07:19:45.598Z,70.1
2016-05-21T07:20:45.804Z,69.91
2016-05-21T07:21:45.838Z,70.29
2016-05-21T07:22:45.872Z,70.45
2016-05-21T07:23:45.921Z,70.64
2016-05-21T07:24:45.955Z,70.64
2016-05-21T07:25:45.990Z,70.55
2016-05-21T07:26:46.320Z,70.17
2016-05-21T07:27:46.072Z,70.2
2016-05-21T07:28:46.107Z,69.14
2016-05-21T07:29:46.156Z,68.76
2016-05-21T07:30:46.190Z,68.47
2016-05-21T07:31:46.225Z,68.51
2016-05-21T07:32:46.258Z,68.31
2016-05-21T07:33:46.308Z,66.87
2016-05-21T07:34:46.341Z,66.2
2016-05-21T07:35:46.391Z,66.91
2016-05-21T07:36:46.425Z,66.3
2016-05-21T07:37:46.333Z,66.33
2016-05-21T07:38:46.508Z,66.81
2016-05-21T07:39:46.386Z,67.38
2016-05-21T07:40:46.577Z,66.91
2016-05-21T07:41:47.032Z,65.94
2016-05-21T07:42:46.660Z,65.56
2016-05-21T07:43:46.710Z,65.75
2016-05-21T07:44:46.743Z,63.76
2016-05-21T07:45:46.793Z,63.48
2016-05-21T07:46:46.827Z,61.49
2016-05-21T07:47:46.861Z,58.85
2016-05-21T07:48:46.910Z,57.37
2016-05-21T07:49:46.945Z,57.29
2016-05-21T07:50:46.979Z,58.42
2016-05-21T07:51:47.028Z,58.88
2016-05-21T07:52:47.077Z,58.01
2016-05-21T07:53:47.112Z,57.85
2016-05-21T07:54:46.989Z,58.69
2016-05-21T07:55:47.195Z,58.78
2016-05-21T07:56:47.089Z,59.45
2016-05-21T07:57:47.278Z,60.3
2016-05-21T07:58:47.312Z,62.19
2016-05-21T07:59:47.362Z,62.26
2016-05-21T08:00:47.396Z,63.89
2016-05-21T08:01:47.430Z,64.05
2016-05-21T08:02:47.480Z,63.57
2016-05-21T08:03:47.528Z,63.67
2016-05-21T08:04:47.563Z,64.15
2016-05-21T08:05:47.613Z,65.11
2016-05-21T08:06:47.647Z,65.01
2016-05-21T08:07:47.696Z,65.75
2016-05-21T08:08:47.730Z,66.23
2016-05-21T08:09:47.608Z,65.56
2016-05-21T08:10:47.813Z,66.14
2016-05-21T08:11:47.863Z,66.68
2016-05-21T08:12:47.741Z,66.68
2016-05-21T08:13:47.946Z,66.42
2016-05-21T08:14:47.981Z,66.61
2016-05-21T08:15:48.014Z,67.29
2016-05-21T08:16:48.064Z,67.86
2016-05-21T08:17:47.941Z,67.93
2016-05-21T08:18:48.148Z,67.45
2016-05-21T08:19:48.182Z,67
2016-05-21T08:20:48.215Z,66.61
2016-05-21T08:21:48.265Z,66.33
2016-05-21T08:22:48.299Z,66.52
2016-05-21T08:23:48.364Z,66.71
2016-05-21T08:24:48.382Z,66.33
2016-05-21T08:25:48.417Z,66.52
2016-05-21T08:26:48.684Z,66.23
2016-05-21T08:27:48.500Z,66.71
2016-05-21T08:28:48.550Z,66.23
2016-05-21T08:29:48.443Z,67.1
2016-05-21T08:30:48.648Z,66.61
2016-05-21T08:31:48.511Z,65.46
2016-05-21T08:32:48.544Z,64.79
2016-05-21T08:33:48.750Z,63.95
2016-05-21T08:34:48.784Z,63.7
2016-05-21T08:35:48.834Z,63.6
2016-05-21T08:36:48.868Z,62.26
2016-05-21T08:37:48.917Z,61.04
2016-05-21T08:38:48.952Z,60.58
2016-05-21T08:39:48.985Z,60.1
2016-05-21T08:40:49.035Z,58.49
2016-05-21T08:41:49.085Z,58.11
2016-05-21T08:42:49.118Z,57.17
2016-05-21T08:43:49.168Z,57.17
2016-05-21T08:44:49.046Z,57.94
2016-05-21T08:45:49.251Z,58.78
2016-05-21T08:46:49.285Z,58.88
2016-05-21T08:47:49.335Z,58.4
2016-05-21T08:48:49.369Z,59.55
2016-05-21T08:49:49.418Z,60.03
2016-05-21T08:50:49.452Z,59.04
2016-05-21T08:51:49.345Z,58.88
2016-05-21T08:52:49.379Z,59.94
2016-05-21T08:53:49.585Z,61.16
2016-05-21T08:54:49.620Z,61.9
2016-05-21T08:55:49.668Z,62.19
2016-05-21T08:56:50.093Z,62.26
2016-05-21T08:57:49.737Z,61.42
2016-05-21T08:58:49.802Z,60.94
2016-05-21T08:59:49.836Z,60.39
2016-05-21T09:00:49.870Z,61.52
2016-05-21T09:01:49.919Z,62
2016-05-21T09:02:49.954Z,62.16
2016-05-21T09:03:50.003Z,62.35
2016-05-21T09:04:50.036Z,62.35
2016-05-21T09:05:50.087Z,62.64
2016-05-21T09:06:50.120Z,62.74
2016-05-21T09:07:50.155Z,62.99
2016-05-21T09:08:50.220Z,63.6
2016-05-21T09:09:50.254Z,62.93
2016-05-21T09:10:50.288Z,63.22
2016-05-21T09:11:50.181Z,62.93
2016-05-21T09:12:50.230Z,62.45
2016-05-21T09:13:50.421Z,62.26
2016-05-21T09:14:50.470Z,62.93
2016-05-21T09:15:50.504Z,64.08
2016-05-21T09:16:50.538Z,62.16
2016-05-21T09:17:50.610Z,62.19
2016-05-21T09:18:50.665Z,61.8
2016-05-21T09:19:50.719Z,61.52
2016-05-21T09:20:50.790Z,60.84
2016-05-21T09:21:50.861Z,61.83
2016-05-21T09:22:50.901Z,61.42
2016-05-21T09:23:50.944Z,61.13
2016-05-21T09:24:51.001Z,61.35
2016-05-21T09:25:51.043Z,60.84
2016-05-21T09:26:51.193Z,61.07
2016-05-21T09:27:51.136Z,60.39
2016-05-21T09:28:51.031Z,61.35
2016-05-21T09:29:51.225Z,60.58
2016-05-21T09:30:51.292Z,59.91
2016-05-21T09:31:51.314Z,58.78
2016-05-21T09:32:51.209Z,58.69
2016-05-21T09:33:51.399Z,59.36
2016-05-21T09:34:51.295Z,57.82
2016-05-21T09:35:51.329Z,56.4
2016-05-21T09:36:51.536Z,55.94
2016-05-21T09:37:51.586Z,55.56
2016-05-21T09:38:51.637Z,56.43
2016-05-21T09:39:51.655Z,55.76
2016-05-21T09:40:51.704Z,54.88
2016-05-21T09:41:51.755Z,52.89
2016-05-21T09:42:51.790Z,51.56
2016-05-21T09:43:51.838Z,49.87
2016-05-21T09:44:51.887Z,50.55
2016-05-21T09:45:51.765Z,49.77
2016-05-21T09:46:51.971Z,50.55
2016-05-21T09:47:52.006Z,51.71
2016-05-21T09:48:51.884Z,52.84
2016-05-21T09:49:52.088Z,52.43
2016-05-21T09:50:52.139Z,51.95
2016-05-21T09:51:52.172Z,50.91
2016-05-21T09:52:52.237Z,50.55
2016-05-21T09:53:52.271Z,49.77
2016-05-21T09:54:52.321Z,50.09
2016-05-21T09:55:52.355Z,50.62
2016-05-21T09:56:52.404Z,51.29
2016-05-21T09:57:52.454Z,52.75
2016-05-21T09:58:52.488Z,54.27
2016-05-21T09:59:52.538Z,53.95
2016-05-21T10:00:52.587Z,51.95
2016-05-21T10:01:52.480Z,51.2
2016-05-21T10:02:52.530Z,51.78
2016-05-21T10:03:52.721Z,51.2
2016-05-21T10:04:52.754Z,50.23
2016-05-21T10:05:52.804Z,49.87
2016-05-21T10:06:52.713Z,48.35
2016-05-21T10:07:52.902Z,47.89
2016-05-21T10:08:52.952Z,47.52
2016-05-21T10:09:52.830Z,47.69
2016-05-21T10:10:53.035Z,47.79
2016-05-21T10:11:53.101Z,47.79
2016-05-21T10:12:53.120Z,47.99
2016-05-21T10:13:53.168Z,47.69
2016-05-21T10:14:53.062Z,47.02
2016-05-21T10:15:53.267Z,46.83
2016-05-21T10:16:53.302Z,46.92
2016-05-21T10:17:53.367Z,46.92
2016-05-21T10:18:53.400Z,46.53
2016-05-21T10:19:53.450Z,45.59
2016-05-21T10:20:53.345Z,45.57
2016-05-21T10:21:53.534Z,44.62
2016-05-21T10:22:53.584Z,45.42
2016-05-21T10:23:53.634Z,44.26
2016-05-21T10:24:53.527Z,43.87
2016-05-21T10:25:53.732Z,43.87
2016-05-21T10:26:53.641Z,45.71
2016-05-21T10:27:53.831Z,46.36
2016-05-21T10:28:53.866Z,46.73
2016-05-21T10:29:53.758Z,47.11
2016-05-21T10:30:53.964Z,48.27
2016-05-21T10:31:54.014Z,50.23
2016-05-21T10:32:54.064Z,49.37
2016-05-21T10:33:54.113Z,48.23
2016-05-21T10:34:54.163Z,46.61
2016-05-21T10:35:54.197Z,45.86
2016-05-21T10:36:54.247Z,45.57
2016-05-21T10:37:54.296Z,46.63
2016-05-21T10:38:54.346Z,49.32
2016-05-21T10:39:54.396Z,47.63
2016-05-21T10:40:54.445Z,45.74
2016-05-21T10:41:54.978Z,43.92
2016-05-21T10:42:54.528Z,42.8
2016-05-21T10:43:54.578Z,43.79
2016-05-21T10:44:54.627Z,44.64
2016-05-21T10:45:54.676Z,43.77
2016-05-21T10:46:54.726Z,43.96
2016-05-21T10:47:54.760Z,43.77
2016-05-21T10:48:54.826Z,45.01
2016-05-21T10:49:54.859Z,46.42
2016-05-21T10:50:54.909Z,46.68
2016-05-21T10:51:54.959Z,46.12
2016-05-21T10:52:55.009Z,44.96
2016-05-21T10:53:55.042Z,43.05
2016-05-21T10:54:55.108Z,42.32
2016-05-21T10:55:55.142Z,43.09
2016-05-21T10:56:55.035Z,43.55
2016-05-21T10:57:55.240Z,43.92
2016-05-21T10:58:55.275Z,46.34
2016-05-21T10:59:55.339Z,46.39
2016-05-21T11:00:55.374Z,47.65
2016-05-21T11:01:55.422Z,48.21
2016-05-21T11:02:55.473Z,47.5
2016-05-21T11:03:55.522Z,46.37
2016-05-21T11:04:55.555Z,47.72
2016-05-21T11:05:55.621Z,47.63
2016-05-21T11:06:55.671Z,47.63
2016-05-21T11:07:55.705Z,47.6
2016-05-21T11:08:55.754Z,46.56
2016-05-21T11:09:55.788Z,44.46
2016-05-21T11:10:55.838Z,44.02
2016-05-21T11:11:56.357Z,43.73
2016-05-21T11:12:55.937Z,44.4
2016-05-21T11:13:55.987Z,44.29
2016-05-21T11:14:56.021Z,43.71
2016-05-21T11:15:56.070Z,46
2016-05-21T11:16:56.104Z,46.17
2016-05-21T11:17:56.279Z,46.27
2016-05-21T11:18:56.218Z,46.27
2016-05-21T11:19:56.253Z,43.98
2016-05-21T11:20:56.303Z,41.99
2016-05-21T11:21:56.195Z,42.2
2016-05-21T11:22:56.245Z,42.3
2016-05-21T11:23:56.451Z,43.34
2016-05-21T11:24:56.484Z,43.82
2016-05-21T11:25:56.362Z,42.86
2016-05-21T11:26:56.583Z,42.86
2016-05-21T11:27:56.618Z,43.41
2016-05-21T11:28:56.667Z,44.96
2016-05-21T11:29:56.717Z,44.82
2016-05-21T11:30:56.750Z,44.8
2016-05-21T11:31:56.816Z,45
2016-05-21T11:32:56.850Z,43.64
2016-05-21T11:33:56.884Z,42.6
2016-05-21T11:34:56.777Z,42.6
2016-05-21T11:35:56.983Z,43.28
2016-05-21T11:36:57.033Z,42.89
2016-05-21T11:37:57.083Z,42.24
2016-05-21T11:38:57.116Z,40.52
2016-05-21T11:39:57.166Z,39.97
2016-05-21T11:40:57.059Z,38.81
2016-05-21T11:41:57.265Z,38.62
2016-05-21T11:42:57.298Z,37.96
2016-05-21T11:43:57.349Z,37.77
2016-05-21T11:44:57.398Z,36.91
2016-05-21T11:45:57.448Z,37.23
2016-05-21T11:46:57.482Z,38
2016-05-21T11:47:57.532Z,39.24
2016-05-21T11:48:57.581Z,39.7
2016-05-21T11:49:57.631Z,39.97
2016-05-21T11:50:57.679Z,40.63
2016-05-21T11:51:57.729Z,41.09
2016-05-21T11:52:57.779Z,42.14
2016-05-21T11:53:57.812Z,42.91
2016-05-21T11:54:57.862Z,42.82
2016-05-21T11:55:57.912Z,43.37
2016-05-21T11:56:58.040Z,42.89
2016-05-21T11:57:58.011Z,43.26
2016-05-21T11:58:58.045Z,44.12
2016-05-21T11:59:58.094Z,43.81
2016-05-21T12:00:57.972Z,42.19
2016-05-21T12:01:58.177Z,40.96
2016-05-21T12:02:58.228Z,40.59
2016-05-21T12:03:58.278Z,40.9
2016-05-21T12:04:58.311Z,41.09
2016-05-21T12:05:58.360Z,41.29
2016-05-21T12:06:58.394Z,39.76
2016-05-21T12:07:58.288Z,39.95
2016-05-21T12:08:58.338Z,39.39
2016-05-21T12:09:58.544Z,40.17
2016-05-21T12:10:58.593Z,41.5
2016-05-21T12:11:58.549Z,39.94
2016-05-21T12:12:58.692Z,39.09
2016-05-21T12:13:58.726Z,39.09
2016-05-21T12:14:58.776Z,38.41
2016-05-21T12:15:58.810Z,38.41
2016-05-21T12:16:58.874Z,38.43
2016-05-21T12:17:58.909Z,39.11
2016-05-21T12:18:58.959Z,39.09
2016-05-21T12:19:58.992Z,38.53
2016-05-21T12:20:58.885Z,39.49
2016-05-21T12:21:59.107Z,38.33
2016-05-21T12:22:59.156Z,37.01
2016-05-21T12:23:59.190Z,36.6
2016-05-21T12:24:59.240Z,36.3
2016-05-21T12:25:59.289Z,35.13
2016-05-21T12:26:59.183Z,35.99
2016-05-21T12:27:59.373Z,36.38
2016-05-21T12:28:59.250Z,36.18
2016-05-21T12:29:59.300Z,36.4
2016-05-21T12:30:59.522Z,35.72
2016-05-21T12:31:59.400Z,35.17
2016-05-21T12:32:59.450Z,33.83
2016-05-21T12:33:59.655Z,33.36
2016-05-21T12:34:59.720Z,32.49
2016-05-21T12:35:59.754Z,32.78
2016-05-21T12:36:59.788Z,32.7
2016-05-21T12:37:59.837Z,32.49
2016-05-21T12:38:59.888Z,32.68
2016-05-21T12:39:59.936Z,32.21
2016-05-21T12:40:59.985Z,32.49
2016-05-21T12:42:00.114Z,33.15
2016-05-21T12:43:00.085Z,33.34
2016-05-21T12:44:00.135Z,33.52
2016-05-21T12:45:00.185Z,34.57
2016-05-21T12:46:00.234Z,34.47
2016-05-21T12:47:00.284Z,35.54
2016-05-21T12:48:00.332Z,36.32
2016-05-21T12:49:00.382Z,36.96
2016-05-21T12:50:00.432Z,37.34
2016-05-21T12:51:00.466Z,37.15
2016-05-21T12:52:00.516Z,36.96
2016-05-21T12:53:00.565Z,35.41
2016-05-21T12:54:00.615Z,34.19
2016-05-21T12:55:00.508Z,33.52
2016-05-21T12:56:00.714Z,33.44